METEOROLOGIA BHB

26 - 22:00 - METAR SAZB 262200Z 32010KT CAVOK 10/00 Q1004 =

IMAGEN SATELITAL

WINDY